aviador You're here:

KBLF Decoded Metar

BLUEFIELD in WV, USA
Report Time2017-11-25 08:52:00
UTC Time2017-11-25 09:26:15
Flight Rules vfr VFR
Wind280° at 09 kt
W.Decomp.*RWY 23: 4.9 kt HW 7.5 kt RCW
W.Rank280° ranks 4
Current wind is above 280° avg. (8.0)
Visibility9999 m
Phenomena:N/A
Clouds:N/A
Expected CloudBase > 3,600 ft AGL from Temp-Dew spread
CeilingNone
Temp07°C (ISA -2)
Dew Point-2°C (53% RH)
AAT1.5°C
QNH1012 hPa
Density Alt2,703 ft
Elevation2,864 ft
Report Wrong Elevation
Raw Report
KBLF 250852Z AUTO 28009KT 10SM CLR 07/M02 A2987 RMK AO2 SLP104
T00671017 56006=

Extra information for KBLF:More info

Metar Taf Metar & Taf Last 4 Metars F.Rules Stats Wind Profile Meteogram Temp Stats Airport Information Weather charts Add Link Nearby VenuesMetar ALERT Operation Metar Decoded Social comments

AIRNAV info for KBLF